createdAt,value
2022-11-12T00:00:04.122Z,14.02
2022-11-12T00:03:26.332Z,13.98
2022-11-12T00:06:48.281Z,13.97
2022-11-12T00:10:12.132Z,13.89
2022-11-12T00:13:35.605Z,13.82
2022-11-12T00:16:57.811Z,13.88
2022-11-12T00:20:20.022Z,13.65
2022-11-12T00:23:42.133Z,13.84
2022-11-12T00:27:04.681Z,14.04
2022-11-12T00:30:28.332Z,13.97
2022-11-12T00:33:50.842Z,13.87
2022-11-12T00:37:13.323Z,13.97
2022-11-12T00:40:35.782Z,13.98
2022-11-12T00:43:58.272Z,14.04
2022-11-12T00:47:22.124Z,13.70
2022-11-12T00:50:44.678Z,13.60
2022-11-12T00:54:07.113Z,13.78
2022-11-12T00:57:29.610Z,13.66
2022-11-12T01:00:51.926Z,13.90
2022-11-12T01:04:15.734Z,13.84
2022-11-12T01:07:38.192Z,13.67
2022-11-12T01:11:08.155Z,13.80
2022-11-12T01:14:30.143Z,13.71
2022-11-12T01:17:52.226Z,13.99
2022-11-12T01:21:16.503Z,13.98
2022-11-12T01:24:38.693Z,13.73
2022-11-12T01:28:00.682Z,13.97
2022-11-12T01:31:25.385Z,14.22
2022-11-12T01:34:47.881Z,14.31
2022-11-12T01:38:11.687Z,14.20
2022-11-12T01:41:36.012Z,14.02
2022-11-12T01:44:58.273Z,13.91
2022-11-12T01:48:28.275Z,14.14
2022-11-12T01:51:53.503Z,14.23
2022-11-12T01:55:21.481Z,14.19
2022-11-12T01:58:45.610Z,14.25
2022-11-12T02:02:07.832Z,14.30
2022-11-12T02:05:32.642Z,14.28
2022-11-12T02:08:56.132Z,13.93
2022-11-12T02:12:33.763Z,14.00
2022-11-12T02:15:56.744Z,14.01
2022-11-12T02:19:21.491Z,14.04
2022-11-12T02:22:45.282Z,14.02
2022-11-12T02:26:07.601Z,14.06
2022-11-12T02:29:29.715Z,13.87
2022-11-12T02:32:51.891Z,13.81
2022-11-12T02:36:14.251Z,13.93
2022-11-12T02:39:39.853Z,13.92
2022-11-12T02:43:02.023Z,13.90
2022-11-12T02:46:24.541Z,13.96
2022-11-12T02:49:46.840Z,13.87
2022-11-12T02:53:09.160Z,13.64
2022-11-12T02:56:32.573Z,13.86
2022-11-12T02:59:55.141Z,13.86
2022-11-12T03:03:17.909Z,13.84
2022-11-12T03:06:39.979Z,13.92
2022-11-12T03:10:08.813Z,13.68
2022-11-12T03:13:35.317Z,13.85
2022-11-12T03:16:57.741Z,13.88
2022-11-12T03:20:20.640Z,13.84
2022-11-12T03:23:42.761Z,13.70
2022-11-12T03:27:04.950Z,13.47
2022-11-12T03:30:30.911Z,13.70
2022-11-12T03:33:58.010Z,13.54
2022-11-12T03:37:20.280Z,13.55
2022-11-12T03:40:42.611Z,13.43
2022-11-12T03:44:04.763Z,13.49
2022-11-12T03:47:28.171Z,13.60
2022-11-12T03:50:50.861Z,13.73
2022-11-12T03:54:13.201Z,13.70
2022-11-12T03:57:35.495Z,13.58
2022-11-12T04:00:57.704Z,13.54
2022-11-12T04:04:21.421Z,13.32
2022-11-12T04:08:01.087Z,13.32
2022-11-12T04:11:23.386Z,13.53
2022-11-12T04:14:45.432Z,13.45
2022-11-12T04:18:25.500Z,13.50
2022-11-12T04:21:58.151Z,13.64
2022-11-12T04:25:38.212Z,13.64
2022-11-12T04:29:18.073Z,13.76
2022-11-12T04:32:43.012Z,13.64
2022-11-12T04:36:05.434Z,13.80
2022-11-12T04:39:29.152Z,13.74
2022-11-12T04:43:08.774Z,13.83
2022-11-12T04:46:31.735Z,13.55
2022-11-12T04:49:53.903Z,13.66
2022-11-12T04:53:16.702Z,13.54
2022-11-12T04:56:40.445Z,13.59
2022-11-12T05:00:02.854Z,13.56
2022-11-12T05:03:25.041Z,13.65
2022-11-12T05:06:53.405Z,13.11
2022-11-12T05:10:15.761Z,13.07
2022-11-12T05:13:39.150Z,13.17
2022-11-12T05:17:01.361Z,12.85
2022-11-12T05:20:23.195Z,13.09
2022-11-12T05:23:45.382Z,13.26
2022-11-12T05:27:11.404Z,12.80
2022-11-12T05:30:34.931Z,12.76
2022-11-12T05:33:57.244Z,12.98
2022-11-12T05:37:19.508Z,12.95
2022-11-12T05:40:46.371Z,13.20
2022-11-12T05:44:08.619Z,12.98
2022-11-12T05:47:32.471Z,12.90
2022-11-12T05:54:37.191Z,13.11
2022-11-12T05:57:59.611Z,12.79
2022-11-12T06:01:22.403Z,12.91
2022-11-12T06:04:46.201Z,13.06
2022-11-12T06:08:08.484Z,12.90
2022-11-12T06:11:30.742Z,12.86
2022-11-12T06:14:52.691Z,12.85
2022-11-12T06:18:15.238Z,12.88
2022-11-12T06:21:38.667Z,12.78
2022-11-12T06:25:00.863Z,12.81
2022-11-12T06:28:23.516Z,12.47
2022-11-12T06:31:45.711Z,12.42
2022-11-12T06:35:09.072Z,12.46
2022-11-12T06:38:33.590Z,12.54
2022-11-12T06:41:55.983Z,12.30
2022-11-12T06:45:18.421Z,12.40
2022-11-12T06:48:40.830Z,12.31
2022-11-12T06:52:03.062Z,12.32
2022-11-12T06:55:26.791Z,12.61
2022-11-12T06:58:48.851Z,12.40
2022-11-12T07:02:13.961Z,12.52
2022-11-12T07:05:38.616Z,12.06
2022-11-12T07:09:01.023Z,12.39
2022-11-12T07:12:24.812Z,12.27
2022-11-12T07:15:47.050Z,11.73
2022-11-12T07:19:09.282Z,11.73
2022-11-12T07:22:31.651Z,11.66
2022-11-12T07:25:59.017Z,11.85
2022-11-12T07:29:42.595Z,12.08
2022-11-12T07:33:05.003Z,12.06
2022-11-12T07:36:27.692Z,11.67
2022-11-12T07:39:50.811Z,11.34
2022-11-12T07:43:13.495Z,11.69
2022-11-12T07:46:37.952Z,11.52
2022-11-12T07:50:00.533Z,11.47
2022-11-12T07:53:22.991Z,11.22
2022-11-12T07:56:45.451Z,11.24
2022-11-12T08:00:09.462Z,11.84
2022-11-12T08:03:33.221Z,11.67
2022-11-12T08:06:55.945Z,12.18
2022-11-12T08:10:18.452Z,12.24
2022-11-12T08:13:40.901Z,12.38
2022-11-12T08:17:03.141Z,12.37
2022-11-12T08:20:27.302Z,12.42
2022-11-12T08:23:49.519Z,12.33
2022-11-12T08:27:11.966Z,12.28
2022-11-12T08:30:34.853Z,12.35
2022-11-12T08:33:57.103Z,12.09
2022-11-12T08:37:20.982Z,12.31
2022-11-12T08:40:43.413Z,12.56
2022-11-12T08:44:08.758Z,12.54
2022-11-12T08:47:31.222Z,12.71
2022-11-12T08:50:54.133Z,12.64
2022-11-12T08:54:18.002Z,12.78
2022-11-12T08:57:44.732Z,12.45
2022-11-12T09:01:08.667Z,12.46
2022-11-12T09:04:31.843Z,12.18
2022-11-12T09:07:59.163Z,12.06
2022-11-12T09:11:23.011Z,11.83
2022-11-12T09:14:45.325Z,12.05
2022-11-12T09:18:10.224Z,12.07
2022-11-12T09:21:32.503Z,12.19
2022-11-12T09:24:54.652Z,12.23
2022-11-12T09:28:20.295Z,12.18
2022-11-12T09:31:42.274Z,12.15
2022-11-12T09:35:05.264Z,12.04
2022-11-12T09:38:27.564Z,12.24
2022-11-12T09:41:49.866Z,12.18
2022-11-12T09:45:22.568Z,12.01
2022-11-12T09:48:50.063Z,12.34
2022-11-12T09:52:18.422Z,12.42
2022-11-12T09:55:44.593Z,12.43
2022-11-12T09:59:13.740Z,12.41
2022-11-12T10:02:43.248Z,12.21
2022-11-12T10:06:13.654Z,12.05
2022-11-12T10:09:48.640Z,12.48
2022-11-12T10:13:30.452Z,12.30
2022-11-12T10:17:02.893Z,12.43
2022-11-12T10:20:38.780Z,12.60
2022-11-12T10:24:02.583Z,12.61
2022-11-12T10:27:29.844Z,12.72
2022-11-12T10:30:53.934Z,12.74
2022-11-12T10:34:21.432Z,12.69
2022-11-12T10:37:50.962Z,12.74
2022-11-12T10:41:31.862Z,12.71
2022-11-12T10:44:54.373Z,12.25
2022-11-12T10:48:27.464Z,12.25
2022-11-12T10:51:57.771Z,13.01
2022-11-12T10:55:24.253Z,13.05
2022-11-12T10:58:46.802Z,12.92
2022-11-12T11:02:18.657Z,12.54
2022-11-12T11:05:51.791Z,12.84
2022-11-12T11:09:20.840Z,13.22
2022-11-12T11:12:44.710Z,12.74
2022-11-12T11:16:09.412Z,12.81
2022-11-12T11:19:37.803Z,12.89
2022-11-12T11:23:05.363Z,12.99
2022-11-12T11:26:34.480Z,12.84
2022-11-12T11:30:07.455Z,12.97
2022-11-12T11:33:42.112Z,13.02
2022-11-12T11:37:18.052Z,12.99
2022-11-12T11:40:48.331Z,13.13
2022-11-12T11:44:22.296Z,13.21
2022-11-12T11:48:01.530Z,13.20
2022-11-12T11:51:38.561Z,13.18
2022-11-12T11:55:10.865Z,13.13
2022-11-12T11:58:50.851Z,13.06
2022-11-12T12:02:34.251Z,13.21
2022-11-12T12:06:17.449Z,13.26
2022-11-12T12:09:48.481Z,13.30
2022-11-12T12:13:18.681Z,13.24
2022-11-12T12:16:52.182Z,13.29
2022-11-12T12:20:20.591Z,13.18
2022-11-12T12:23:48.591Z,13.24
2022-11-12T12:27:13.823Z,13.17
2022-11-12T12:30:40.701Z,12.93
2022-11-12T12:34:06.271Z,12.89
2022-11-12T12:37:37.345Z,12.77
2022-11-12T12:41:08.328Z,12.94
2022-11-12T12:44:53.161Z,12.62
2022-11-12T12:48:20.190Z,12.76
2022-11-12T12:51:42.310Z,12.93
2022-11-12T12:55:04.670Z,13.01
2022-11-12T12:58:30.951Z,12.83
2022-11-12T13:01:59.721Z,12.86
2022-11-12T13:05:31.492Z,12.61
2022-11-12T13:08:57.882Z,12.83
2022-11-12T13:12:25.972Z,12.82
2022-11-12T13:15:50.742Z,12.62
2022-11-12T13:19:28.302Z,12.54
2022-11-12T13:22:52.653Z,12.76
2022-11-12T13:26:44.724Z,12.70
2022-11-12T13:30:09.751Z,12.72
2022-11-12T13:33:37.021Z,12.70
2022-11-12T13:37:04.402Z,12.58
2022-11-12T13:40:47.528Z,12.71
2022-11-12T13:44:17.143Z,12.59
2022-11-12T13:47:40.042Z,12.70
2022-11-12T13:51:07.852Z,12.43
2022-11-12T13:54:33.424Z,12.28
2022-11-12T13:57:57.712Z,12.53
2022-11-12T14:01:22.970Z,12.22
2022-11-12T14:04:45.268Z,12.41
2022-11-12T14:08:30.723Z,12.28
2022-11-12T14:12:09.603Z,12.38
2022-11-12T14:15:51.224Z,12.26
2022-11-12T14:19:49.633Z,12.14
2022-11-12T14:23:21.578Z,12.28
2022-11-12T14:26:46.783Z,12.35
2022-11-12T14:30:22.201Z,12.13
2022-11-12T14:33:44.463Z,12.21
2022-11-12T14:37:06.873Z,12.40
2022-11-12T14:40:33.642Z,12.40
2022-11-12T14:44:11.497Z,12.12
2022-11-12T14:47:34.884Z,12.23
2022-11-12T14:51:03.102Z,12.31
2022-11-12T14:54:32.052Z,12.08
2022-11-12T14:57:58.982Z,12.30
2022-11-12T15:02:03.703Z,12.26
2022-11-12T15:05:14.972Z,12.19
2022-11-12T15:08:39.072Z,12.40
2022-11-12T15:12:01.426Z,12.39
2022-11-12T15:15:24.934Z,12.14
2022-11-12T15:19:04.750Z,12.47
2022-11-12T15:22:27.082Z,12.45
2022-11-12T15:25:59.322Z,12.28
2022-11-12T15:29:27.192Z,12.48
2022-11-12T15:32:51.035Z,12.49
2022-11-12T15:36:18.093Z,12.57
2022-11-12T15:39:43.101Z,12.70
2022-11-12T15:43:05.482Z,12.66
2022-11-12T15:46:27.985Z,12.71
2022-11-12T15:49:53.451Z,12.78
2022-11-12T15:53:16.420Z,12.62
2022-11-12T15:56:38.615Z,12.80
2022-11-12T16:00:07.871Z,12.88
2022-11-12T16:03:31.533Z,12.86
2022-11-12T16:06:55.399Z,12.80
2022-11-12T16:10:19.542Z,12.71
2022-11-12T16:13:41.893Z,12.73
2022-11-12T16:17:04.173Z,12.83
2022-11-12T16:20:28.663Z,12.86
2022-11-12T16:23:52.641Z,12.83
2022-11-12T16:27:16.202Z,12.68
2022-11-12T16:30:38.372Z,12.69
2022-11-12T16:34:00.694Z,12.87
2022-11-12T16:37:22.702Z,12.83
2022-11-12T16:40:46.935Z,12.81
2022-11-12T16:44:09.244Z,13.01
2022-11-12T16:47:32.999Z,12.94
2022-11-12T16:50:55.133Z,12.92
2022-11-12T16:54:17.363Z,12.94
2022-11-12T16:57:41.621Z,12.82
2022-11-12T17:01:03.997Z,12.91
2022-11-12T17:04:26.382Z,12.80
2022-11-12T17:07:48.911Z,12.90
2022-11-12T17:11:11.372Z,12.92
2022-11-12T17:14:35.212Z,13.03
2022-11-12T17:17:57.684Z,13.04
2022-11-12T17:21:21.082Z,13.02
2022-11-12T17:24:43.192Z,13.08
2022-11-12T17:28:05.681Z,12.66
2022-11-12T17:31:29.216Z,12.79
2022-11-12T17:34:51.732Z,12.59
2022-11-12T17:38:14.203Z,12.70
2022-11-12T17:41:36.573Z,12.73
2022-11-12T17:44:58.802Z,12.73
2022-11-12T17:48:23.332Z,12.65
2022-11-12T17:51:45.903Z,12.67
2022-11-12T17:55:08.724Z,12.85
2022-11-12T17:58:31.094Z,12.80
2022-11-12T18:01:53.633Z,12.88
2022-11-12T18:05:17.082Z,12.79
2022-11-12T18:08:39.722Z,12.60
2022-11-12T18:12:01.945Z,12.60
2022-11-12T18:15:23.952Z,12.55
2022-11-12T18:18:46.592Z,12.57
2022-11-12T18:22:12.883Z,12.40
2022-11-12T18:25:38.410Z,12.53
2022-11-12T18:29:01.852Z,12.50
2022-11-12T18:32:24.114Z,12.67
2022-11-12T18:35:46.572Z,12.66
2022-11-12T18:39:10.124Z,12.66
2022-11-12T18:42:32.463Z,12.61
2022-11-12T18:45:59.347Z,12.32
2022-11-12T18:49:21.721Z,12.13
2022-11-12T18:52:44.125Z,12.15
2022-11-12T18:56:10.264Z,12.47
2022-11-12T18:59:32.872Z,12.40
2022-11-12T19:02:54.873Z,12.34
2022-11-12T19:06:17.413Z,12.46
2022-11-12T19:09:39.872Z,12.11
2022-11-12T19:13:05.210Z,12.19
2022-11-12T19:16:27.502Z,12.34
2022-11-12T19:19:49.875Z,12.07
2022-11-12T19:23:12.537Z,12.13
2022-11-12T19:26:34.983Z,12.13
2022-11-12T19:30:02.833Z,12.25
2022-11-12T19:33:25.743Z,12.12
2022-11-12T19:36:48.442Z,12.04
2022-11-12T19:40:16.882Z,12.23
2022-11-12T19:43:40.485Z,12.31
2022-11-12T19:47:04.146Z,12.30
2022-11-12T19:50:26.482Z,12.34
2022-11-12T19:53:49.464Z,12.04
2022-11-12T19:57:11.733Z,11.96
2022-11-12T20:00:33.712Z,12.12
2022-11-12T20:03:57.799Z,11.92
2022-11-12T20:07:20.077Z,11.93
2022-11-12T20:10:42.084Z,12.13
2022-11-12T20:14:04.523Z,11.85
2022-11-12T20:17:26.683Z,12.21
2022-11-12T20:20:51.856Z,12.10
2022-11-12T20:24:14.244Z,12.28
2022-11-12T20:27:36.460Z,12.26
2022-11-12T20:31:03.593Z,12.08
2022-11-12T20:34:27.002Z,12.36
2022-11-12T20:37:50.733Z,12.40
2022-11-12T20:41:18.093Z,12.53
2022-11-12T20:44:41.730Z,12.53
2022-11-12T20:48:04.882Z,12.54
2022-11-12T20:51:29.831Z,12.41
2022-11-12T20:54:53.362Z,12.47
2022-11-12T20:58:15.782Z,12.33
2022-11-12T21:01:38.651Z,12.30
2022-11-12T21:05:00.841Z,12.23
2022-11-12T21:08:23.143Z,12.22
2022-11-12T21:11:47.132Z,12.38
2022-11-12T21:15:11.142Z,12.49
2022-11-12T21:18:35.051Z,12.53
2022-11-12T21:21:57.470Z,12.68
2022-11-12T21:25:20.164Z,12.79
2022-11-12T21:28:45.748Z,12.44
2022-11-12T21:32:08.209Z,12.28
2022-11-12T21:35:30.653Z,12.41
2022-11-12T21:38:52.754Z,12.22
2022-11-12T21:42:16.451Z,12.48
2022-11-12T21:45:46.463Z,12.45
2022-11-12T21:49:08.810Z,12.36
2022-11-12T21:52:30.903Z,12.42
2022-11-12T21:55:53.043Z,12.58
2022-11-12T21:59:15.650Z,12.34
2022-11-12T22:02:39.243Z,12.42
2022-11-12T22:06:01.574Z,12.57
2022-11-12T22:09:23.632Z,12.64
2022-11-12T22:13:12.130Z,12.59
2022-11-12T22:16:30.332Z,12.56
2022-11-12T22:19:57.003Z,12.44
2022-11-12T22:23:19.681Z,12.56
2022-11-12T22:26:42.012Z,12.39
2022-11-12T22:30:04.164Z,12.32
2022-11-12T22:33:26.244Z,12.37
2022-11-12T22:36:49.793Z,12.39
2022-11-12T22:40:13.864Z,12.46
2022-11-12T22:43:38.192Z,12.54
2022-11-12T22:47:00.531Z,12.62
2022-11-12T22:50:22.966Z,12.60
2022-11-12T22:53:46.332Z,12.68
2022-11-12T22:57:08.593Z,12.48
2022-11-12T23:00:32.131Z,12.12
2022-11-12T23:03:57.034Z,12.34
2022-11-12T23:07:19.341Z,12.32
2022-11-12T23:10:45.752Z,12.42
2022-11-12T23:14:08.238Z,12.41
2022-11-12T23:17:30.640Z,12.33
2022-11-12T23:20:53.166Z,12.24
2022-11-12T23:24:15.201Z,12.43
2022-11-12T23:27:39.244Z,12.36
2022-11-12T23:31:02.052Z,12.43
2022-11-12T23:34:24.589Z,12.29
2022-11-12T23:37:46.732Z,12.50
2022-11-12T23:41:08.893Z,12.28
2022-11-12T23:44:32.694Z,12.30
2022-11-12T23:47:56.193Z,12.22
2022-11-12T23:51:20.559Z,12.25
2022-11-12T23:54:42.953Z,12.42
2022-11-12T23:58:05.371Z,12.52
